Terminal Aerodrome Forecast
Issued by NWS

Home | Current Version | Previous Version | Text Only | Print | Product List | Glossary On
Versions: 1 2 3 4 5 6 7 8 9 10 11 12 13 14 15 16 17 18 19 20 21 22
000
FTUS43 KIND 281100
TAFHUF
TAF
KHUF 281136Z 2812/2912 32007KT P6SM FEW025
      TEMPO 2812/2814 BKN025
     FM281500 33012KT P6SM SCT040
     FM290000 35009KT P6SM SKC=

USA.gov is the U.S. government's official web portal to all federal, state and local government web resources and services.